Flight Track Log - Related Links

Times and Time Zones

All times are in EDT time to prevent confusion due to time zone crossing. See the N137TK flight status page for this flight to view local times or setup timezone preferences in your user account.

Time Position Orientation Groundspeed Altitude Reporting Facility
EDT Latitude Longitude Course Direction KTS MPH feet Rate Location/Type
Mon 08:00:19 AM 36.0644 -79.8267 55° Northeast 186 214 7,800  Level Washington Center
Mon 08:01:18 AM 36.0994 -79.7797 47° Northeast 186 214 9,700 1,750 Climbing Washington Center
Mon 08:02:19 AM 36.1347 -79.7250 51° Northeast 204 235 11,300 1,686 Climbing Washington Center
Mon 08:03:00 AM 36.1824 -79.6933 55° Northeast  Level FlightAware Approximate
Mon 08:03:19 AM 36.1786 -79.6631 49° Northeast 210 242 13,100  Level Washington Center
Mon 08:04:00 AM 36.2218 -79.6241 55° Northeast  Level FlightAware Approximate
Mon 08:04:20 AM 36.2203 -79.6058 48° Northeast 232 267 14,600  Level Washington Center
Mon 08:05:00 AM 36.2606 -79.5544 55° Northeast  Level FlightAware Approximate
Mon 08:05:20 AM 36.2683 -79.5361 49° Northeast 232 267 16,400  Level Washington Center
Mon 08:06:18 AM 36.3100 -79.4792 48° Northeast 238 274 17,800 1,373 Climbing Washington Center
Mon 08:07:18 AM 36.3581 -79.4067 51° Northeast 243 280 19,100 1,289 Climbing Washington Center
Mon 08:08:19 AM 36.3897 -79.3333 62° Northeast 243 280 20,400 934 Climbing Washington Center
Mon 08:09:20 AM 36.4131 -79.2544 70° East 238 274 21,000 303 Climbing Washington Center
Mon 08:10:18 AM 36.4408 -79.1653 69° East 267 307 21,000  Level Washington Center
Mon 08:11:19 AM 36.4728 -79.0711 67° East 284 327 21,000  Level Washington Center
Mon 08:12:20 AM 36.5050 -78.9692 69° East 297 342 21,000  Level Washington Center
Mon 08:13:18 AM 36.5350 -78.8647 70° East 309 356 21,000  Level Washington Center
Mon 08:14:18 AM 36.5667 -78.7650 68° East 309 356 21,000  Level Washington Center
Mon 08:15:18 AM 36.5967 -78.6603 70° East 314 361 21,000  Level Washington Center
Mon 08:16:19 AM 36.6264 -78.5553 71° East 314 361 21,000  Level Washington Center
Mon 08:17:20 AM 36.6581 -78.4531 69° East 314 361 21,000  Level Washington Center
Mon 08:18:20 AM 36.6900 -78.3350 71° East 314 361 21,000  Level Washington Center
Mon 08:19:19 AM 36.7217 -78.2325 69° East 314 361 21,000  Level Washington Center
Mon 08:20:20 AM 36.7508 -78.1297 70° East 314 361 21,000  Level Washington Center
Mon 08:21:21 AM 36.7822 -78.0244 70° East 314 361 21,000  Level Washington Center
Mon 08:22:19 AM 36.8114 -77.9242 70° East 314 361 21,000  Level Washington Center
Mon 08:23:17 AM 36.8447 -77.8214 68° East 314 361 21,000  Level Washington Center
Mon 08:24:19 AM 36.8800 -77.7211 66° East 314 361 21,000  Level Washington Center
Mon 08:25:19 AM 36.9214 -77.6208 63° Northeast 314 361 21,000  Level Washington Center
Mon 08:26:20 AM 36.9583 -77.5206 65° Northeast 314 361 21,000  Level Washington Center
Mon 08:27:18 AM 36.9997 -77.4203 63° Northeast 319 367 21,000  Level Washington Center
Mon 08:28:19 AM 37.0386 -77.3194 64° Northeast 319 367 21,000  Level Washington Center
Mon 08:29:20 AM 37.0775 -77.2189 64° Northeast 319 367 21,000  Level Washington Center
Mon 08:30:18 AM 37.1186 -77.1208 62° Northeast 319 367 21,000 -102 Level Washington Center
Mon 08:31:18 AM 37.1553 -77.0225 65° Northeast 319 367 20,800 -662 Descending Washington Center
Mon 08:32:34 AM 37.2089 -76.8983 62° Northeast 336 387 19,500 -992 Descending Washington Center
Mon 08:33:19 AM 37.2347 -76.8206 67° East 329 379 18,800 -962 Descending Washington Center
Mon 08:34:20 AM 37.2772 -76.7167 63° Northeast 329 379 17,800 -908 Descending Washington Center
Mon 08:35:18 AM 37.3181 -76.6103 64° Northeast 329 379 17,000 -915 Descending Washington Center
Mon 08:36:18 AM 37.3458 -76.5008 72° East 324 373 16,000 -1,350 Descending Washington Center
Mon 08:37:18 AM 37.3675 -76.4019 75° East 311 358 14,300 -1,835 Descending Washington Center
Mon 08:38:19 AM 37.3869 -76.3028 76° East 295 339 12,300 -2,132 Descending Washington Center
Mon 08:39:19 AM 37.4061 -76.2061 76° East 284 327 10,000 -2,430 Descending Washington Center
Mon 08:40:20 AM 37.4275 -76.1150 74° East 260 299 7,400 -2,430 Descending Washington Center
Mon 08:41:20 AM 37.4467 -76.0261 75° East 260 299 5,100 -2,103 Descending Washington Center
Mon 08:42:17 AM 37.4614 -75.9450 77° East 252 290 3,300 -1,895 Descending Washington Center

Login

Don't have an account? Register now (free) for customized features, flight alerts, and more!